Time;durP1;ratioP1;P1;durP2;ratioP2;P2;SDS_P1;SDS_P2;PMS_P1;PMS_P2;Temp;Humidity;BMP_temperature;BMP_pressure;BME280_temperature;BME280_humidity;BME280_pressure;Samples;Min_cycle;Max_cycle;Signal;HPM_P1;HPM_P2
2022/12/04 00:00:14;;;;;;;63.63;33.70;;;2.40;85.00;;;;;;4963658;28;20516;-75
2022/12/04 00:02:40;;;;;;;63.90;35.20;;;2.40;84.90;;;;;;4963195;28;20062;-75
2022/12/04 00:05:07;;;;;;;66.38;33.60;;;2.30;85.10;;;;;;4964636;28;20050;-75
2022/12/04 00:07:34;;;;;;;67.10;35.35;;;2.40;85.20;;;;;;4970458;28;20155;-74
2022/12/04 00:10:00;;;;;;;66.65;35.53;;;2.40;85.10;;;;;;4964186;28;20118;-74
2022/12/04 00:12:26;;;;;;;64.03;36.13;;;2.40;85.00;;;;;;4960766;28;20041;-76
2022/12/04 00:14:51;;;;;;;61.83;34.55;;;2.40;84.90;;;;;;4959257;28;20090;-76
2022/12/04 00:17:17;;;;;;;62.38;32.70;;;2.40;84.90;;;;;;4963131;28;20038;-76
2022/12/04 00:19:43;;;;;;;66.43;33.33;;;2.40;84.80;;;;;;4968276;28;20031;-75
2022/12/04 00:22:08;;;;;;;64.20;35.05;;;2.40;84.60;;;;;;4967177;28;20659;-75
2022/12/04 00:24:34;;;;;;;62.83;34.30;;;2.40;84.90;;;;;;4973104;28;20376;-77
2022/12/04 00:27:00;;;;;;;63.17;35.17;;;2.40;85.10;;;;;;4965232;28;20414;-76
2022/12/04 00:29:25;;;;;;;73.03;36.85;;;2.40;85.20;;;;;;4969775;28;20048;-76
2022/12/04 00:31:51;;;;;;;66.68;35.50;;;2.30;85.20;;;;;;4973876;28;20070;-76
2022/12/04 00:34:16;;;;;;;66.95;36.47;;;2.30;85.40;;;;;;4960398;28;20082;-75
2022/12/04 00:36:42;;;;;;;67.85;36.17;;;2.30;85.60;;;;;;4965044;28;20461;-76
2022/12/04 00:39:08;;;;;;;66.03;35.78;;;2.30;85.60;;;;;;4966311;28;20367;-75
2022/12/04 00:41:34;;;;;;;65.78;34.72;;;2.20;85.50;;;;;;4968028;28;20092;-76
2022/12/04 00:44:00;;;;;;;66.43;36.78;;;2.20;85.60;;;;;;4958818;28;20045;-75
2022/12/04 00:46:26;;;;;;;72.25;36.35;;;2.20;85.80;;;;;;4966275;28;20101;-75
2022/12/04 00:48:53;;;;;;;70.43;35.63;;;2.20;85.70;;;;;;4965266;28;20039;-76
2022/12/04 00:51:23;;;;;;;68.00;34.25;;;2.20;85.80;;;;;;4967070;28;20039;-75
2022/12/04 00:53:51;;;;;;;69.50;36.78;;;2.20;85.70;;;;;;4961114;28;20031;-75
2022/12/04 00:56:22;;;;;;;70.07;34.72;;;2.20;86.00;;;;;;4965476;28;20054;-75
2022/12/04 00:58:52;;;;;;;69.68;34.83;;;2.10;86.10;;;;;;4958976;28;20063;-77
2022/12/04 01:01:19;;;;;;;69.00;36.75;;;2.10;86.10;;;;;;4965035;28;20129;-75
2022/12/04 01:03:45;;;;;;;65.72;34.35;;;2.10;86.10;;;;;;4960087;28;20268;-75
2022/12/04 01:06:27;;;;;;;70.38;37.33;;;2.00;86.10;;;;;;4969206;28;20034;-75
2022/12/04 01:08:54;;;;;;;68.32;35.85;;;2.00;86.30;;;;;;4963637;28;20427;-76
2022/12/04 01:11:22;;;;;;;75.15;38.58;;;2.10;86.20;;;;;;4966884;28;20035;-75
2022/12/04 01:13:48;;;;;;;70.13;36.00;;;2.00;86.20;;;;;;4962626;28;20066;-75
2022/12/04 01:16:19;;;;;;;69.28;35.17;;;2.00;86.30;;;;;;4959888;28;20127;-75
2022/12/04 01:18:45;;;;;;;66.88;37.00;;;2.00;86.40;;;;;;4967208;28;20160;-74
2022/12/04 01:21:11;;;;;;;71.65;36.72;;;1.90;86.40;;;;;;4969382;28;20099;-76
2022/12/04 01:23:36;;;;;;;70.57;36.50;;;1.90;86.40;;;;;;4963998;28;20042;-76
2022/12/04 01:26:02;;;;;;;74.40;37.88;;;1.80;86.50;;;;;;4961742;28;20039;-75
2022/12/04 01:28:28;;;;;;;72.18;36.80;;;1.80;86.70;;;;;;4963343;28;20049;-77
2022/12/04 01:30:56;;;;;;;71.10;36.30;;;1.70;86.80;;;;;;4964959;28;20046;-75
2022/12/04 01:33:22;;;;;;;72.25;37.75;;;1.70;87.20;;;;;;4963252;28;20249;-75
2022/12/04 01:35:52;;;;;;;66.57;35.47;;;1.70;87.10;;;;;;4966695;28;20469;-75
2022/12/04 01:38:18;;;;;;;72.13;37.45;;;1.70;87.00;;;;;;4964449;28;20026;-77
2022/12/04 01:40:44;;;;;;;72.78;37.53;;;1.70;87.00;;;;;;4966043;28;20038;-74
2022/12/04 01:43:11;;;;;;;66.68;38.20;;;1.70;87.00;;;;;;4967683;28;20038;-77
2022/12/04 01:45:40;;;;;;;78.85;38.85;;;1.80;87.00;;;;;;4966594;28;20418;-75
2022/12/04 01:48:13;;;;;;;72.30;37.83;;;1.70;87.00;;;;;;4965131;28;20457;-75
2022/12/04 01:50:41;;;;;;;73.82;37.17;;;1.70;87.10;;;;;;4962689;28;20051;-75
2022/12/04 01:53:07;;;;;;;66.78;34.92;;;1.70;87.10;;;;;;4961234;28;20119;-75
2022/12/04 01:55:33;;;;;;;75.35;37.20;;;1.70;87.00;;;;;;4976273;28;20038;-75
2022/12/04 01:58:00;;;;;;;73.07;37.97;;;1.70;87.00;;;;;;4967823;28;20027;-76
2022/12/04 02:00:26;;;;;;;73.03;37.60;;;1.70;87.30;;;;;;4967147;28;20096;-75
2022/12/04 02:02:51;;;;;;;68.57;36.45;;;1.70;87.20;;;;;;4965960;28;20034;-75
2022/12/04 02:05:20;;;;;;;68.90;35.75;;;1.70;87.10;;;;;;4967305;28;20408;-75
2022/12/04 02:07:49;;;;;;;71.85;37.58;;;1.60;87.20;;;;;;4967958;28;20129;-75
2022/12/04 02:10:16;;;;;;;67.05;34.10;;;1.70;87.20;;;;;;4966191;28;20472;-74
2022/12/04 02:13:07;;;;;;;69.45;36.33;;;1.70;87.10;;;;;;4967930;28;20392;-76
2022/12/04 02:15:42;;;;;;;67.63;35.45;;;1.60;87.00;;;;;;4968202;28;20046;-76
2022/12/04 02:18:23;;;;;;;71.15;34.78;;;1.50;87.30;;;;;;4968148;28;20030;-75
2022/12/04 02:20:49;;;;;;;70.90;36.45;;;1.50;87.50;;;;;;4974427;28;20057;-76
2022/12/04 02:23:43;;;;;;;74.90;36.70;;;1.50;87.70;;;;;;4969529;28;20035;-76
2022/12/04 02:26:15;;;;;;;66.63;34.00;;;1.50;87.60;;;;;;4961245;28;20058;-74
2022/12/04 02:28:53;;;;;;;71.63;37.10;;;1.50;87.60;;;;;;4970770;28;20096;-75
2022/12/04 02:31:38;;;;;;;69.57;35.55;;;1.50;87.60;;;;;;4966728;28;20059;-75
2022/12/04 02:34:09;;;;;;;74.05;38.42;;;1.40;87.70;;;;;;4970062;28;20029;-74
2022/12/04 02:36:43;;;;;;;74.95;40.30;;;1.40;87.90;;;;;;4962348;28;20066;-76
2022/12/04 02:39:18;;;;;;;78.03;38.22;;;1.40;88.00;;;;;;4970565;28;20054;-75
2022/12/04 02:41:56;;;;;;;74.05;38.38;;;1.30;87.90;;;;;;4965424;28;20038;-75
2022/12/04 02:44:33;;;;;;;77.40;38.92;;;1.30;88.10;;;;;;4964556;28;20034;-75
2022/12/04 02:47:03;;;;;;;72.35;37.88;;;1.40;88.00;;;;;;4964430;28;20034;-73
2022/12/04 02:49:35;;;;;;;76.07;37.78;;;1.30;88.10;;;;;;4970120;28;20123;-76
2022/12/04 02:52:05;;;;;;;79.00;40.35;;;1.20;88.10;;;;;;4963237;28;20105;-76
2022/12/04 02:54:35;;;;;;;77.93;39.25;;;1.10;88.30;;;;;;4974541;28;20463;-76
2022/12/04 02:57:05;;;;;;;77.28;39.47;;;1.10;88.40;;;;;;4969654;28;20482;-77
2022/12/04 02:59:41;;;;;;;77.78;39.45;;;1.00;88.60;;;;;;4969037;28;20535;-76
2022/12/04 03:02:13;;;;;;;74.55;38.63;;;0.90;88.80;;;;;;4957581;28;20483;-77
2022/12/04 03:04:41;;;;;;;78.97;39.38;;;0.90;88.90;;;;;;4967135;28;20041;-75
2022/12/04 03:07:13;;;;;;;76.30;40.15;;;0.90;89.00;;;;;;4962171;28;20463;-76
2022/12/04 03:09:49;;;;;;;76.35;40.00;;;0.80;89.00;;;;;;4963246;28;20205;-77
2022/12/04 03:12:20;;;;;;;80.65;39.83;;;0.80;89.10;;;;;;4966146;28;20054;-76
2022/12/04 03:15:09;;;;;;;82.50;39.97;;;0.80;89.10;;;;;;4969852;28;20122;-75
2022/12/04 03:18:00;;;;;;;79.55;40.10;;;0.80;89.30;;;;;;4964972;28;20046;-75
2022/12/04 03:20:27;;;;;;;84.00;41.15;;;0.70;89.20;;;;;;4969756;28;20074;-76
2022/12/04 03:23:01;;;;;;;90.00;43.10;;;0.60;89.40;;;;;;4964020;28;20070;-76
2022/12/04 03:25:47;;;;;;;80.45;40.70;;;0.60;89.50;;;;;;4975724;28;20077;-76
2022/12/04 03:28:33;;;;;;;90.22;42.63;;;0.60;89.70;;;;;;4962595;28;20059;-76
2022/12/04 03:31:03;;;;;;;90.18;42.85;;;0.50;89.80;;;;;;4963203;28;20684;-75
2022/12/04 03:33:38;;;;;;;91.47;43.38;;;0.60;89.90;;;;;;4960315;28;20066;-77
2022/12/04 03:36:08;;;;;;;88.25;41.75;;;0.50;90.00;;;;;;4961914;28;20341;-76
2022/12/04 03:38:46;;;;;;;96.85;44.30;;;0.50;90.00;;;;;;4965322;28;20035;-76
2022/12/04 03:41:30;;;;;;;95.78;42.75;;;0.60;90.10;;;;;;4960443;28;20185;-76
2022/12/04 03:44:32;;;;;;;94.00;44.97;;;0.50;90.10;;;;;;4967490;28;20050;-74
2022/12/04 03:47:16;;;;;;;96.78;44.78;;;0.40;90.20;;;;;;4967426;28;20049;-75
2022/12/04 03:49:58;;;;;;;98.50;45.03;;;0.50;90.30;;;;;;4964268;28;20329;-75
2022/12/04 03:52:31;;;;;;;100.13;45.97;;;0.40;90.30;;;;;;4966730;28;20395;-76
2022/12/04 03:55:09;;;;;;;95.00;42.55;;;0.40;90.40;;;;;;4969314;28;20057;-77
2022/12/04 03:57:42;;;;;;;92.28;43.75;;;0.40;90.50;;;;;;4960593;28;20039;-75
2022/12/04 04:00:16;;;;;;;97.05;45.58;;;0.40;90.60;;;;;;4968695;28;20035;-76
2022/12/04 04:02:53;;;;;;;96.40;44.38;;;0.40;90.50;;;;;;4977885;28;20360;-75
2022/12/04 04:05:19;;;;;;;93.55;43.78;;;0.40;90.50;;;;;;4962102;28;20543;-75
2022/12/04 04:07:50;;;;;;;98.53;45.67;;;0.40;90.50;;;;;;4962954;28;20035;-74
2022/12/04 04:10:19;;;;;;;102.32;47.67;;;0.30;90.50;;;;;;4968011;28;20490;-76
2022/12/04 04:24:29;;;;;;;108.75;45.50;;;0.20;91.10;;;;;;4967922;28;20522;-75
2022/12/04 04:26:57;;;;;;;107.57;47.03;;;0.10;91.00;;;;;;4964620;28;20118;-76
2022/12/04 04:29:25;;;;;;;105.95;47.03;;;0.10;91.10;;;;;;4978548;28;20422;-75
2022/12/04 04:31:55;;;;;;;103.82;43.70;;;0.10;91.10;;;;;;4961972;28;20049;-78
2022/12/04 04:34:29;;;;;;;101.75;45.40;;;0.10;91.30;;;;;;4976419;28;20395;-77
2022/12/04 04:37:12;;;;;;;105.10;46.65;;;0.10;91.40;;;;;;4963597;28;20030;-77
2022/12/04 04:40:04;;;;;;;100.68;43.25;;;0.10;91.40;;;;;;4962371;28;20501;-76
2022/12/04 04:43:07;;;;;;;99.97;44.70;;;0.10;91.40;;;;;;4963204;28;20452;-75
2022/12/04 04:45:37;;;;;;;109.60;46.33;;;0.00;91.40;;;;;;4956690;28;20030;-77
2022/12/04 04:48:24;;;;;;;109.00;45.67;;;0.00;91.50;;;;;;4966037;28;20042;-75
2022/12/04 04:50:51;;;;;;;112.18;47.47;;;0.10;91.50;;;;;;4962230;28;20035;-76
2022/12/04 04:53:35;;;;;;;101.40;44.90;;;0.10;91.60;;;;;;4966474;28;20134;-76
2022/12/04 04:56:02;;;;;;;107.85;46.08;;;0.10;91.50;;;;;;4960611;28;20365;-76
2022/12/04 04:58:28;;;;;;;102.57;46.33;;;0.10;91.60;;;;;;4960829;28;20038;-74
2022/12/04 05:01:00;;;;;;;104.65;44.58;;;0.10;91.60;;;;;;4965150;28;20065;-75
2022/12/04 05:03:26;;;;;;;105.53;45.80;;;0.10;91.50;;;;;;4967753;28;20038;-77
2022/12/04 05:05:52;;;;;;;108.80;46.40;;;0.20;91.60;;;;;;4961271;28;20050;-75
2022/12/04 05:08:17;;;;;;;105.00;45.30;;;0.20;91.60;;;;;;4960997;28;20031;-75
2022/12/04 05:10:43;;;;;;;97.47;45.88;;;0.30;91.60;;;;;;4965163;28;20040;-75
2022/12/04 05:13:11;;;;;;;107.40;45.38;;;0.40;91.50;;;;;;4963062;28;20467;-75
2022/12/04 05:15:37;;;;;;;103.00;46.03;;;0.40;91.50;;;;;;4979696;28;20038;-76
2022/12/04 05:18:04;;;;;;;105.20;45.03;;;0.40;91.30;;;;;;4961064;28;20031;-76
2022/12/04 05:20:30;;;;;;;105.47;47.42;;;0.40;91.20;;;;;;4966843;28;20054;-76
2022/12/04 05:22:55;;;;;;;104.28;47.53;;;0.40;91.30;;;;;;4966418;28;20109;-78
2022/12/04 05:25:21;;;;;;;104.95;45.80;;;0.40;91.20;;;;;;4961266;28;20042;-75
2022/12/04 05:27:46;;;;;;;103.40;44.47;;;0.40;91.30;;;;;;4963661;28;20122;-76
2022/12/04 05:30:12;;;;;;;101.13;45.72;;;0.50;91.30;;;;;;4972335;28;20070;-76
2022/12/04 05:32:38;;;;;;;105.68;44.65;;;0.50;91.30;;;;;;4968864;28;20130;-77
2022/12/04 05:35:04;;;;;;;102.07;45.38;;;0.50;91.30;;;;;;4964820;28;20027;-77
2022/12/04 05:37:29;;;;;;;107.95;46.83;;;0.50;91.20;;;;;;4972035;28;20085;-76
2022/12/04 05:39:55;;;;;;;97.90;44.90;;;0.50;91.20;;;;;;4964856;28;20042;-76
2022/12/04 05:42:21;;;;;;;106.10;46.20;;;0.40;91.30;;;;;;4974370;28;20140;-74
2022/12/04 05:44:48;;;;;;;104.88;45.80;;;0.50;91.40;;;;;;4969263;28;20039;-76
2022/12/04 05:47:14;;;;;;;101.97;44.60;;;0.60;91.40;;;;;;4965609;28;20467;-75
2022/12/04 05:49:39;;;;;;;99.78;45.20;;;0.50;91.30;;;;;;4970681;28;20023;-77
2022/12/04 05:52:05;;;;;;;97.20;43.83;;;0.50;91.40;;;;;;4970207;28;20400;-75
2022/12/04 05:54:31;;;;;;;104.68;46.60;;;0.60;91.40;;;;;;4965907;28;20065;-75
2022/12/04 05:56:56;;;;;;;98.55;45.00;;;0.50;91.40;;;;;;4964973;28;20424;-74
2022/12/04 05:59:22;;;;;;;100.32;44.03;;;0.60;91.40;;;;;;4969112;28;20050;-76
2022/12/04 06:01:48;;;;;;;100.13;43.58;;;0.60;91.30;;;;;;4968293;28;20058;-74
2022/12/04 06:04:13;;;;;;;99.43;44.47;;;0.60;91.30;;;;;;4965539;28;20022;-76
2022/12/04 06:06:39;;;;;;;100.07;45.60;;;0.60;91.30;;;;;;4964601;28;20100;-75
2022/12/04 06:09:06;;;;;;;102.30;45.15;;;0.60;91.30;;;;;;4965384;28;20425;-75
2022/12/04 06:11:34;;;;;;;102.80;43.58;;;0.60;91.30;;;;;;4969848;28;20125;-74
2022/12/04 06:14:03;;;;;;;108.70;46.08;;;0.60;91.40;;;;;;4968628;28;20446;-78
2022/12/04 06:16:32;;;;;;;111.20;48.03;;;0.70;91.40;;;;;;4968507;28;20087;-75
2022/12/04 06:19:03;;;;;;;104.97;47.15;;;0.70;91.40;;;;;;4972810;28;20116;-76
2022/12/04 06:21:31;;;;;;;101.22;45.08;;;0.70;91.30;;;;;;4967626;28;20489;-73
2022/12/04 06:23:57;;;;;;;104.90;45.85;;;0.70;91.30;;;;;;4964985;28;20035;-77
2022/12/04 06:26:24;;;;;;;96.65;44.25;;;0.70;91.20;;;;;;4965251;28;20116;-75
2022/12/04 06:28:55;;;;;;;96.60;44.00;;;0.80;91.20;;;;;;4967921;28;20097;-75
2022/12/04 06:31:22;;;;;;;99.93;42.88;;;0.80;91.20;;;;;;4962491;28;20059;-76
2022/12/04 06:33:48;;;;;;;98.82;44.35;;;0.80;91.10;;;;;;4966783;28;20034;-76
2022/12/04 06:36:17;;;;;;;99.47;42.72;;;0.90;91.00;;;;;;4961527;28;20038;-77
2022/12/04 06:38:44;;;;;;;100.10;44.40;;;0.90;91.00;;;;;;4962930;28;20066;-74
2022/12/04 06:41:12;;;;;;;97.47;43.17;;;0.90;91.00;;;;;;4964510;28;20069;-75
2022/12/04 06:43:39;;;;;;;96.88;42.65;;;0.90;91.00;;;;;;4963245;28;20038;-73
2022/12/04 06:46:07;;;;;;;97.85;44.30;;;0.90;90.80;;;;;;4967133;28;20027;-78
2022/12/04 06:48:33;;;;;;;96.75;43.92;;;0.90;90.80;;;;;;4968136;28;20098;-77
2022/12/04 06:51:05;;;;;;;91.90;44.08;;;1.00;90.80;;;;;;4966163;28;20051;-75
2022/12/04 06:53:31;;;;;;;95.78;44.25;;;0.90;90.60;;;;;;4965123;28;20052;-77
2022/12/04 06:55:59;;;;;;;89.32;42.05;;;0.90;90.70;;;;;;4968214;28;20037;-77
2022/12/04 06:58:26;;;;;;;89.32;42.58;;;1.00;90.70;;;;;;4962112;28;20035;-76
2022/12/04 07:00:52;;;;;;;93.85;42.78;;;1.00;90.70;;;;;;4964416;28;20026;-77
2022/12/04 07:03:18;;;;;;;101.00;44.72;;;1.00;90.70;;;;;;4967498;28;20030;-76
2022/12/04 07:05:44;;;;;;;88.93;44.78;;;1.10;90.70;;;;;;4964487;28;20228;-77
2022/12/04 07:08:10;;;;;;;101.90;45.20;;;1.00;90.60;;;;;;4966649;28;20031;-75
2022/12/04 07:10:36;;;;;;;86.78;43.38;;;1.10;90.70;;;;;;4963003;28;20043;-76
2022/12/04 07:13:03;;;;;;;90.63;43.92;;;1.10;90.70;;;;;;4974107;28;20038;-76
2022/12/04 07:15:29;;;;;;;94.65;42.75;;;1.10;90.60;;;;;;4965829;28;20307;-74
2022/12/04 07:17:54;;;;;;;93.10;43.72;;;1.10;90.70;;;;;;4955344;28;20039;-75
2022/12/04 07:20:20;;;;;;;98.90;45.08;;;1.10;90.50;;;;;;4915409;28;1336801;-74
2022/12/04 07:22:46;;;;;;;92.07;44.55;;;1.10;90.30;;;;;;4953656;28;20384;-74
2022/12/04 07:25:11;;;;;;;86.07;41.35;;;1.10;90.30;;;;;;4959969;28;20429;-76
2022/12/04 07:27:37;;;;;;;89.03;42.78;;;1.10;90.30;;;;;;4962377;28;20027;-75
2022/12/04 07:30:04;;;;;;;97.20;44.83;;;1.10;90.40;;;;;;4956856;28;20043;-75
2022/12/04 07:32:30;;;;;;;93.30;44.08;;;1.10;90.30;;;;;;4959407;28;20043;-76
2022/12/04 07:34:56;;;;;;;92.35;44.60;;;1.10;90.30;;;;;;4973967;28;20093;-74
2022/12/04 07:37:21;;;;;;;93.07;44.08;;;1.10;90.30;;;;;;4958728;28;20057;-76
2022/12/04 07:39:50;;;;;;;94.88;44.30;;;1.10;90.30;;;;;;4965448;28;20494;-76
2022/12/04 07:42:16;;;;;;;88.32;43.25;;;1.20;90.30;;;;;;4959147;28;20034;-75
2022/12/04 07:44:41;;;;;;;96.13;46.30;;;1.10;90.10;;;;;;4955687;28;20042;-74
2022/12/04 07:47:07;;;;;;;92.72;45.25;;;1.20;90.10;;;;;;4953591;28;20372;-76
2022/12/04 07:49:33;;;;;;;90.35;42.00;;;1.30;90.00;;;;;;4953263;28;20057;-75
2022/12/04 07:51:58;;;;;;;88.85;44.20;;;1.30;89.80;;;;;;4959617;28;20069;-75
2022/12/04 07:54:24;;;;;;;88.65;44.30;;;1.30;89.80;;;;;;4957376;28;20114;-76
2022/12/04 07:56:50;;;;;;;86.57;44.60;;;1.30;89.90;;;;;;4958013;28;20031;-76
2022/12/04 07:59:15;;;;;;;90.63;42.42;;;1.30;89.80;;;;;;4958482;28;20936;-74
2022/12/04 08:01:41;;;;;;;82.68;42.47;;;1.30;89.90;;;;;;4964105;28;20456;-75
2022/12/04 08:04:09;;;;;;;92.65;46.47;;;1.40;89.80;;;;;;4960154;28;22071;-74
2022/12/04 08:06:34;;;;;;;89.65;44.38;;;1.40;89.70;;;;;;4961969;28;20031;-76
2022/12/04 08:09:00;;;;;;;91.40;45.50;;;1.40;89.70;;;;;;4958894;28;20056;-77
2022/12/04 08:11:27;;;;;;;89.45;45.75;;;1.50;89.60;;;;;;4955467;28;20049;-74
2022/12/04 08:13:57;;;;;;;82.88;43.67;;;1.50;89.20;;;;;;4955719;28;20030;-76
2022/12/04 08:16:24;;;;;;;86.47;43.75;;;1.50;89.30;;;;;;4957380;28;20035;-76
2022/12/04 08:18:50;;;;;;;89.32;46.63;;;1.60;89.30;;;;;;4960393;28;20209;-75
2022/12/04 08:21:19;;;;;;;85.60;45.53;;;1.50;89.10;;;;;;4956949;28;20406;-76
2022/12/04 08:23:47;;;;;;;85.93;44.95;;;1.60;89.10;;;;;;4955595;28;20121;-74
2022/12/04 08:26:14;;;;;;;82.38;44.33;;;1.50;89.10;;;;;;4952059;28;20043;-74
2022/12/04 08:28:40;;;;;;;87.53;45.20;;;1.50;89.10;;;;;;4955232;28;20039;-74
2022/12/04 08:31:15;;;;;;;89.03;43.25;;;1.60;89.30;;;;;;4959358;28;20091;-75
2022/12/04 08:33:41;;;;;;;;;;;1.60;89.10;;;;;;4963099;28;20042;-74
2022/12/04 08:36:09;;;;;;;86.57;41.25;;;1.60;88.90;;;;;;4965507;28;19995;-76
2022/12/04 08:38:35;;;;;;;89.35;45.00;;;1.70;88.90;;;;;;4965092;28;20499;-73
2022/12/04 08:41:03;;;;;;;91.95;46.35;;;1.70;88.70;;;;;;4964091;28;20070;-75
2022/12/04 08:43:29;;;;;;;87.25;45.47;;;1.80;88.70;;;;;;4975026;28;20628;-74
2022/12/04 08:45:59;;;;;;;83.50;43.97;;;1.70;88.40;;;;;;4967264;28;20269;-74
2022/12/04 08:48:25;;;;;;;86.55;44.80;;;1.80;88.50;;;;;;4966046;28;20031;-74
2022/12/04 08:50:51;;;;;;;85.70;45.63;;;1.70;88.60;;;;;;4965706;28;20255;-75
2022/12/04 08:53:17;;;;;;;88.05;43.90;;;1.80;88.60;;;;;;4960533;28;20154;-74
2022/12/04 08:55:43;;;;;;;88.43;43.58;;;1.80;88.50;;;;;;4961578;28;20118;-74
2022/12/04 08:58:09;;;;;;;89.72;45.22;;;1.80;88.50;;;;;;4958191;28;20042;-75
2022/12/04 09:00:35;;;;;;;89.38;44.42;;;1.80;88.30;;;;;;4961419;28;20035;-75
2022/12/04 09:03:00;;;;;;;85.03;45.90;;;1.80;88.20;;;;;;4960412;28;20044;-74
2022/12/04 09:05:26;;;;;;;79.82;42.17;;;1.90;88.10;;;;;;4959696;28;20466;-74
2022/12/04 09:07:51;;;;;;;87.57;43.33;;;1.90;87.90;;;;;;4972335;28;20062;-74
2022/12/04 09:10:17;;;;;;;90.28;47.42;;;1.90;88.00;;;;;;4962236;28;20376;-75
2022/12/04 09:12:43;;;;;;;87.40;43.80;;;1.90;88.00;;;;;;4967299;28;20067;-75
2022/12/04 09:15:09;;;;;;;90.15;47.17;;;1.90;87.80;;;;;;4959860;28;20743;-73
2022/12/04 09:17:35;;;;;;;92.80;47.13;;;1.90;87.90;;;;;;4969677;28;20039;-74
2022/12/04 09:20:02;;;;;;;90.18;47.15;;;1.90;88.00;;;;;;4959673;28;20046;-74
2022/12/04 09:22:28;;;;;;;85.80;45.92;;;2.00;87.90;;;;;;4970905;28;20142;-75
2022/12/04 09:24:54;;;;;;;90.18;45.60;;;2.00;87.70;;;;;;4962548;28;20133;-76
2022/12/04 09:27:19;;;;;;;86.57;45.38;;;2.00;88.00;;;;;;4961292;28;20049;-75
2022/12/04 09:29:45;;;;;;;87.30;46.53;;;2.10;87.70;;;;;;4956861;28;20380;-73
2022/12/04 09:32:10;;;;;;;91.50;45.83;;;2.10;87.70;;;;;;4959886;28;20134;-76
2022/12/04 09:34:36;;;;;;;86.22;44.17;;;2.10;87.50;;;;;;4956782;28;20043;-75
2022/12/04 09:37:02;;;;;;;81.50;44.25;;;2.10;87.40;;;;;;4953477;28;20037;-76
2022/12/04 09:39:27;;;;;;;83.85;44.38;;;2.10;87.30;;;;;;4955538;28;20035;-75
2022/12/04 09:41:53;;;;;;;78.70;44.05;;;2.20;87.30;;;;;;4962735;28;20544;-74
2022/12/04 09:44:22;;;;;;;90.45;46.30;;;2.20;87.10;;;;;;4966911;28;20615;-73
2022/12/04 09:46:47;;;;;;;84.70;44.97;;;2.30;87.10;;;;;;4964173;28;20031;-74
2022/12/04 09:49:22;;;;;;;86.43;45.55;;;2.30;86.90;;;;;;4960648;28;20027;-74
2022/12/04 09:51:49;;;;;;;;;;;2.30;86.90;;;;;;4966253;28;20043;-76
2022/12/04 09:54:18;;;;;;;83.55;43.80;;;2.20;87.00;;;;;;4960034;28;20492;-75
2022/12/04 09:56:53;;;;;;;88.15;45.95;;;2.30;87.10;;;;;;4962680;28;20049;-74
2022/12/04 09:59:31;;;;;;;88.18;45.95;;;2.30;87.00;;;;;;4960943;28;20073;-76
2022/12/04 10:02:35;;;;;;;85.18;44.30;;;2.20;86.80;;;;;;4962310;28;20043;-75
2022/12/04 10:05:01;;;;;;;86.93;46.72;;;2.20;86.80;;;;;;4972344;28;20039;-75
2022/12/04 10:07:51;;;;;;;87.80;45.55;;;2.20;86.90;;;;;;4964520;28;20031;-74
2022/12/04 10:10:28;;;;;;;87.22;45.35;;;2.30;86.80;;;;;;4952809;28;20042;-75
2022/12/04 10:12:54;;;;;;;90.45;49.10;;;2.30;86.80;;;;;;4964826;28;20038;-75
2022/12/04 10:15:27;;;;;;;83.32;45.00;;;2.40;86.90;;;;;;4963308;28;20034;-74
2022/12/04 10:18:21;;;;;;;87.00;46.90;;;2.40;86.70;;;;;;4962371;28;20061;-73
2022/12/04 10:20:49;;;;;;;81.13;45.03;;;2.40;86.30;;;;;;4957991;28;20070;-75
2022/12/04 10:23:23;;;;;;;82.95;43.22;;;2.40;86.20;;;;;;4957213;28;20031;-77
2022/12/04 10:25:52;;;;;;;85.75;46.08;;;2.40;86.20;;;;;;4965137;28;20132;-75
2022/12/04 10:28:37;;;;;;;81.65;43.25;;;2.40;86.40;;;;;;4965460;28;20035;-76
2022/12/04 10:31:04;;;;;;;;;;;2.50;86.40;;;;;;4957305;28;20548;-74
2022/12/04 10:33:37;;;;;;;84.45;44.60;;;2.40;86.10;;;;;;4963201;28;19922;-74
2022/12/04 10:36:04;;;;;;;83.35;44.05;;;2.60;86.10;;;;;;4964842;28;20041;-76
2022/12/04 10:38:41;;;;;;;83.55;44.15;;;2.60;86.10;;;;;;4960489;28;20732;-75
2022/12/04 10:41:14;;;;;;;83.88;46.90;;;2.60;85.90;;;;;;4959694;28;20650;-74
2022/12/04 10:43:45;;;;;;;87.68;48.67;;;2.60;85.30;;;;;;4965694;28;20045;-74
2022/12/04 10:46:25;;;;;;;86.22;45.83;;;2.50;85.50;;;;;;4955383;28;20043;-74
2022/12/04 10:49:02;;;;;;;84.65;44.50;;;2.50;85.70;;;;;;4963842;28;20751;-75
2022/12/04 10:51:34;;;;;;;79.75;44.38;;;2.40;85.70;;;;;;4961966;28;20050;-75
2022/12/04 10:54:00;;;;;;;81.32;44.00;;;2.50;85.80;;;;;;4959337;28;20038;-76
2022/12/04 10:56:25;;;;;;;82.20;46.13;;;2.50;85.80;;;;;;4959524;28;20030;-75
2022/12/04 10:59:03;;;;;;;75.65;41.75;;;2.40;85.50;;;;;;4964333;28;20027;-75
2022/12/04 11:01:31;;;;;;;83.38;45.28;;;2.40;85.50;;;;;;4963351;28;20124;-75
2022/12/04 11:04:07;;;;;;;85.35;46.17;;;2.40;85.60;;;;;;4960241;28;20035;-75
2022/12/04 11:06:33;;;;;;;80.15;44.58;;;2.50;85.50;;;;;;4960680;28;20106;-75
2022/12/04 11:09:00;;;;;;;82.88;44.13;;;2.40;85.40;;;;;;4961545;28;20033;-75
2022/12/04 11:11:30;;;;;;;80.90;42.08;;;2.50;85.90;;;;;;4959144;28;20050;-76
2022/12/04 11:14:13;;;;;;;79.03;43.08;;;2.50;85.80;;;;;;4965864;28;20041;-75
2022/12/04 11:16:43;;;;;;;86.07;46.78;;;2.50;85.80;;;;;;4959337;28;20034;-75
2022/12/04 11:19:21;;;;;;;79.20;45.35;;;2.60;85.90;;;;;;4965841;28;20168;-75
2022/12/04 11:21:47;;;;;;;72.97;42.65;;;2.60;85.60;;;;;;4971074;28;20051;-75
2022/12/04 11:24:24;;;;;;;72.03;41.88;;;2.60;85.10;;;;;;4957900;28;20038;-75
2022/12/04 11:26:50;;;;;;;69.88;40.42;;;2.60;84.40;;;;;;4962168;28;20121;-75
2022/12/04 11:29:21;;;;;;;70.70;39.40;;;2.60;84.10;;;;;;4962736;28;20030;-75
2022/12/04 11:31:51;;;;;;;72.70;40.90;;;2.40;83.90;;;;;;4968615;28;20530;-75
2022/12/04 11:34:23;;;;;;;71.47;43.20;;;2.50;84.20;;;;;;4983968;28;20316;-75
2022/12/04 11:36:52;;;;;;;72.95;43.03;;;2.60;84.30;;;;;;4965614;28;20034;-75
2022/12/04 11:39:28;;;;;;;72.95;40.97;;;2.60;84.10;;;;;;4968441;28;20038;-75
2022/12/04 11:42:30;;;;;;;66.57;39.63;;;2.60;83.80;;;;;;4968767;28;20145;-75
2022/12/04 11:45:00;;;;;;;75.80;41.25;;;2.60;83.30;;;;;;4966356;28;20038;-76
2022/12/04 11:47:29;;;;;;;67.22;39.45;;;2.60;83.20;;;;;;4963804;28;20039;-75
2022/12/04 11:50:17;;;;;;;69.13;41.40;;;2.70;83.30;;;;;;4958364;28;20031;-76
2022/12/04 11:52:49;;;;;;;70.63;39.10;;;2.70;83.50;;;;;;4957880;28;20050;-75
2022/12/04 11:55:24;;;;;;;70.55;40.78;;;2.60;82.90;;;;;;4960953;28;20050;-74
2022/12/04 11:58:09;;;;;;;66.15;38.22;;;2.70;83.10;;;;;;4963777;28;20038;-74
2022/12/04 12:00:41;;;;;;;64.80;39.43;;;2.70;82.90;;;;;;4965763;28;20050;-74
2022/12/04 12:03:29;;;;;;;61.15;36.72;;;2.70;82.80;;;;;;4959426;28;20286;-76
2022/12/04 12:06:30;;;;;;;64.50;38.10;;;2.70;82.70;;;;;;4964760;28;20026;-75
2022/12/04 12:09:16;;;;;;;65.78;38.80;;;2.70;82.80;;;;;;4965137;28;20223;-75
2022/12/04 12:12:08;;;;;;;60.95;36.95;;;2.70;82.50;;;;;;4960981;28;20058;-74
2022/12/04 12:14:46;;;;;;;61.17;35.10;;;2.70;82.50;;;;;;4970332;28;20054;-75
2022/12/04 12:17:15;;;;;;;58.30;36.13;;;2.70;82.30;;;;;;4967465;28;20500;-75
2022/12/04 12:20:05;;;;;;;54.85;32.63;;;2.70;82.00;;;;;;4966639;28;20031;-75
2022/12/04 12:23:05;;;;;;;51.08;31.65;;;2.70;81.70;;;;;;4958533;28;20065;-75
2022/12/04 12:25:42;;;;;;;54.20;31.15;;;2.70;81.60;;;;;;4962606;28;20042;-74
2022/12/04 12:28:11;;;;;;;55.55;34.38;;;2.80;81.90;;;;;;4960869;28;20042;-75
2022/12/04 12:31:04;;;;;;;51.15;31.90;;;2.80;81.70;;;;;;4971293;28;20050;-74
2022/12/04 12:33:49;;;;;;;52.22;31.02;;;2.80;81.60;;;;;;4966930;28;20050;-74
2022/12/04 12:36:20;;;;;;;49.63;30.15;;;2.80;81.60;;;;;;4962873;28;20171;-75
2022/12/04 12:38:59;;;;;;;49.17;29.23;;;2.80;81.50;;;;;;4960178;28;20442;-75
2022/12/04 12:41:40;;;;;;;53.03;32.30;;;2.90;81.60;;;;;;4965289;28;20030;-74
2022/12/04 12:44:22;;;;;;;53.85;31.58;;;2.90;81.50;;;;;;4959004;28;20140;-73
2022/12/04 12:46:59;;;;;;;55.70;34.33;;;2.90;81.20;;;;;;4960964;28;20033;-75
2022/12/04 12:49:28;;;;;;;56.65;33.78;;;2.90;81.10;;;;;;4957767;28;20234;-75
2022/12/04 12:52:05;;;;;;;57.83;35.72;;;2.70;81.10;;;;;;4960965;28;20127;-75
2022/12/04 12:54:53;;;;;;;63.03;36.78;;;2.70;81.60;;;;;;4958088;28;20081;-74
2022/12/04 12:57:27;;;;;;;59.40;34.92;;;2.80;81.70;;;;;;4957183;28;20067;-75
2022/12/04 12:59:56;;;;;;;;;;;2.80;81.80;;;;;;4957342;28;20027;-75
2022/12/04 13:02:40;;;;;;;61.85;36.40;;;2.70;81.80;;;;;;4953520;28;19921;-75
2022/12/04 13:05:09;;;;;;;59.13;35.10;;;2.80;82.10;;;;;;4959210;28;20984;-75